Time;durP1;ratioP1;P1;durP2;ratioP2;P2;SDS_P1;SDS_P2;PMS_P1;PMS_P2;Temp;Humidity;BMP_temperature;BMP_pressure;BME280_temperature;BME280_humidity;BME280_pressure;Samples;Min_cycle;Max_cycle;Signal;HPM_P1;HPM_P2
2023/09/13 00:01:46;;;;;;;9.30;8.40;;;21.50;1.00;;;;;;5137198;27;20431;-46
2023/09/13 00:04:12;;;;;;;9.83;9.00;;;21.40;1.00;;;;;;5138132;27;20263;-46
2023/09/13 00:06:39;;;;;;;10.00;9.00;;;21.40;99.90;;;;;;5137013;27;20541;-46
2023/09/13 00:09:06;;;;;;;9.63;8.83;;;21.40;1.00;;;;;;5136321;27;20522;-47
2023/09/13 00:11:32;;;;;;;11.87;8.80;;;21.40;99.90;;;;;;5136270;27;20465;-46
2023/09/13 00:13:58;;;;;;;9.70;8.80;;;21.50;99.90;;;;;;5135224;28;20477;-46
2023/09/13 00:16:24;;;;;;;10.10;9.20;;;21.40;99.90;;;;;;5135489;28;20889;-46
2023/09/13 00:18:51;;;;;;;9.80;8.90;;;21.40;1.00;;;;;;5134460;28;20448;-46
2023/09/13 00:21:17;;;;;;;10.40;9.17;;;21.30;99.90;;;;;;5136986;28;20881;-46
2023/09/13 00:23:43;;;;;;;9.93;8.97;;;21.30;99.90;;;;;;5136768;28;20420;-46
2023/09/13 00:26:09;;;;;;;10.77;9.77;;;21.30;99.90;;;;;;5138125;28;20824;-46
2023/09/13 00:28:35;;;;;;;10.83;9.73;;;21.30;35.50;;;;;;5137586;28;20499;-46
2023/09/13 00:31:01;;;;;;;10.50;9.50;;;21.20;99.90;;;;;;5137498;28;20309;-46
2023/09/13 00:33:26;;;;;;;10.80;9.83;;;21.20;99.90;;;;;;5136179;28;20258;-46
2023/09/13 00:35:56;;;;;;;10.80;9.50;;;21.10;99.90;;;;;;5137397;28;20191;-46
2023/09/13 00:38:21;;;;;;;9.30;8.50;;;21.10;1.00;;;;;;5136787;28;20421;-46
2023/09/13 00:40:47;;;;;;;10.10;9.10;;;21.10;1.00;;;;;;5137125;28;20487;-46
2023/09/13 00:43:13;;;;;;;9.73;8.77;;;21.20;1.00;;;;;;5137509;28;20201;-46
2023/09/13 00:45:39;;;;;;;8.80;8.00;;;21.20;1.00;;;;;;5119218;28;20187;-46
2023/09/13 00:48:05;;;;;;;9.33;8.43;;;21.20;1.00;;;;;;5136754;28;20279;-45
2023/09/13 00:50:31;;;;;;;9.07;8.10;;;21.20;99.90;;;;;;5137149;28;20460;-46
2023/09/13 00:52:57;;;;;;;9.93;9.00;;;21.20;99.90;;;;;;5136677;28;20531;-45
2023/09/13 00:55:24;;;;;;;8.60;7.73;;;21.20;99.90;;;;;;5136752;28;20641;-46
2023/09/13 00:57:50;;;;;;;8.60;7.70;;;21.20;99.90;;;;;;5117850;28;20501;-46
2023/09/13 01:00:17;;;;;;;8.03;7.33;;;21.20;1.00;;;;;;5118894;28;20432;-46
2023/09/13 01:02:44;;;;;;;9.20;8.40;;;21.20;1.00;;;;;;5136299;28;20420;-45
2023/09/13 01:05:11;;;;;;;9.60;8.80;;;21.10;1.00;;;;;;5136434;28;20425;-46
2023/09/13 01:07:41;;;;;;;10.13;9.07;;;21.10;1.00;;;;;;5118097;28;20497;-46
2023/09/13 01:10:07;;;;;;;9.80;8.87;;;21.10;99.90;;;;;;5135744;28;20865;-46
2023/09/13 01:12:33;;;;;;;11.17;10.07;;;20.80;1.00;;;;;;5134860;28;20417;-45
2023/09/13 01:15:00;;;;;;;10.10;9.00;;;20.60;1.00;;;;;;5134346;28;20416;-45
2023/09/13 01:17:44;;;;;;;9.37;8.47;;;20.50;22.10;;;;;;5116812;28;20481;-46
2023/09/13 01:20:48;;;;;;;10.20;9.30;;;20.40;99.90;;;;;;5136690;27;20416;-45
2023/09/13 01:23:44;;;;;;;9.67;8.90;;;20.40;99.90;;;;;;5082496;27;20487;-46
2023/09/13 01:26:18;;;;;;;10.13;9.30;;;20.40;99.90;;;;;;5139680;27;20413;-45
2023/09/13 01:28:50;;;;;;;9.40;8.60;;;20.40;99.90;;;;;;5139211;27;20515;-46
2023/09/13 01:31:21;;;;;;;10.20;9.10;;;20.50;99.90;;;;;;5139374;27;20531;-46
2023/09/13 01:33:47;;;;;;;10.07;9.17;;;20.50;99.90;;;;;;5139918;27;20519;-46
2023/09/13 01:36:13;;;;;;;11.17;10.07;;;20.40;99.90;;;;;;5138610;27;20435;-45
2023/09/13 01:38:39;;;;;;;10.97;10.00;;;20.30;1.00;;;;;;5139257;27;20511;-46
2023/09/13 01:41:26;;;;;;;10.20;9.30;;;20.40;1.00;;;;;;5139535;27;20754;-45
2023/09/13 01:43:53;;;;;;;10.37;9.47;;;20.40;1.00;;;;;;5120386;27;20432;-46
2023/09/13 01:46:20;;;;;;;10.63;9.53;;;20.30;1.00;;;;;;5121247;27;20416;-45
2023/09/13 01:48:46;;;;;;;10.13;9.23;;;20.30;1.00;;;;;;5138237;27;20500;-46
2023/09/13 01:51:12;;;;;;;11.10;9.97;;;20.30;1.00;;;;;;5138098;27;20559;-46
2023/09/13 01:53:45;;;;;;;9.23;8.43;;;20.40;1.00;;;;;;5120927;27;20882;-45
2023/09/13 01:56:10;;;;;;;11.20;8.93;;;20.50;1.00;;;;;;5122538;27;20561;-45
2023/09/13 01:58:36;;;;;;;9.00;8.20;;;20.60;99.90;;;;;;5127449;27;20416;-46
2023/09/13 02:01:02;;;;;;;9.87;8.97;;;20.60;99.90;;;;;;5136806;27;20270;-46
2023/09/13 02:03:27;;;;;;;9.80;8.80;;;20.60;99.90;;;;;;5127805;27;20719;-46
2023/09/13 02:05:53;;;;;;;8.47;7.67;;;20.70;99.90;;;;;;5116010;27;20545;-46
2023/09/13 02:08:19;;;;;;;9.00;8.20;;;20.70;99.90;;;;;;5116349;27;20192;-46
2023/09/13 02:10:48;;;;;;;9.50;8.70;;;20.70;99.90;;;;;;5117456;28;20668;-46
2023/09/13 02:13:13;;;;;;;8.70;7.90;;;20.70;99.90;;;;;;5131353;27;20591;-46
2023/09/13 02:15:40;;;;;;;9.40;7.93;;;20.70;99.90;;;;;;5136377;27;20531;-46
2023/09/13 02:18:06;;;;;;;8.83;7.63;;;20.70;99.90;;;;;;5120153;27;21277;-46
2023/09/13 02:20:31;;;;;;;8.93;8.13;;;20.80;99.90;;;;;;5127164;27;20837;-45
2023/09/13 02:22:57;;;;;;;8.70;8.00;;;20.80;99.90;;;;;;5117357;28;20425;-46
2023/09/13 02:25:23;;;;;;;8.80;8.00;;;20.70;99.90;;;;;;5135300;27;20179;-45
2023/09/13 02:27:48;;;;;;;10.77;7.80;;;20.80;99.90;;;;;;5138677;27;20814;-45
2023/09/13 02:30:14;;;;;;;9.03;8.23;;;20.80;99.90;;;;;;5138768;27;20211;-45
2023/09/13 02:32:40;;;;;;;9.30;8.40;;;20.70;99.90;;;;;;5138622;27;20179;-46
2023/09/13 02:35:07;;;;;;;9.03;8.13;;;20.60;99.90;;;;;;5138278;27;20315;-46
2023/09/13 02:37:32;;;;;;;9.07;8.17;;;20.50;99.90;;;;;;5137892;27;20562;-46
2023/09/13 02:39:58;;;;;;;9.47;8.47;;;20.40;99.90;;;;;;5137855;27;20576;-46
2023/09/13 02:42:24;;;;;;;9.80;8.83;;;20.40;99.90;;;;;;5138669;27;20183;-46
2023/09/13 02:44:50;;;;;;;8.60;7.70;;;20.30;1.00;;;;;;5138969;27;20240;-46
2023/09/13 02:47:16;;;;;;;8.80;7.90;;;20.20;1.00;;;;;;5137384;27;20439;-45
2023/09/13 02:49:42;;;;;;;8.80;8.07;;;20.10;1.00;;;;;;5137791;27;20404;-45
2023/09/13 02:52:07;;;;;;;9.00;8.20;;;20.20;1.00;;;;;;5136149;27;20202;-46
2023/09/13 02:54:34;;;;;;;8.60;7.80;;;20.10;1.00;;;;;;5136989;27;20623;-45
2023/09/13 02:57:00;;;;;;;8.80;7.97;;;20.10;1.00;;;;;;5137660;27;20198;-46
2023/09/13 02:59:26;;;;;;;8.30;7.60;;;20.10;1.00;;;;;;5137369;27;20709;-46
2023/09/13 03:01:51;;;;;;;8.50;7.80;;;20.10;1.00;;;;;;5137787;27;20439;-46
2023/09/13 03:04:17;;;;;;;8.10;7.50;;;20.10;1.00;;;;;;5137736;27;20179;-46
2023/09/13 03:06:42;;;;;;;8.83;8.03;;;20.10;1.00;;;;;;5137836;27;20275;-45
2023/09/13 03:09:08;;;;;;;8.70;8.00;;;20.20;1.00;;;;;;5138076;27;20574;-46
2023/09/13 03:11:38;;;;;;;8.67;7.83;;;20.20;1.00;;;;;;5136968;27;20222;-45
2023/09/13 03:14:05;;;;;;;8.10;7.40;;;20.20;1.00;;;;;;5137328;27;20184;-46
2023/09/13 03:16:30;;;;;;;8.50;7.80;;;20.30;1.00;;;;;;5137670;27;20401;-45
2023/09/13 03:18:57;;;;;;;9.90;8.90;;;20.30;1.00;;;;;;5131839;27;20541;-46
2023/09/13 03:21:24;;;;;;;8.33;7.63;;;20.30;99.90;;;;;;5121483;27;20190;-46
2023/09/13 03:23:50;;;;;;;8.60;7.90;;;20.30;99.90;;;;;;5122053;27;20851;-45
2023/09/13 03:26:20;;;;;;;9.60;7.30;;;20.20;99.90;;;;;;5116174;28;20482;-46
2023/09/13 03:28:51;;;;;;;7.93;7.23;;;20.20;99.90;;;;;;5137018;27;20190;-46
2023/09/13 03:31:18;;;;;;;9.13;8.33;;;20.10;99.90;;;;;;5137314;27;20463;-46
2023/09/13 03:33:45;;;;;;;7.97;7.30;;;20.20;99.90;;;;;;5137319;27;20826;-45
2023/09/13 03:36:12;;;;;;;8.33;7.50;;;20.20;99.90;;;;;;5137614;27;20432;-45
2023/09/13 03:38:40;;;;;;;8.87;7.80;;;20.30;99.90;;;;;;5137562;27;20695;-46
2023/09/13 03:41:18;;;;;;;8.13;7.43;;;20.40;99.90;;;;;;5136716;27;20800;-46
2023/09/13 03:43:44;;;;;;;8.47;7.77;;;20.40;99.90;;;;;;5118844;27;20504;-46
2023/09/13 03:46:10;;;;;;;7.00;6.40;;;20.40;99.90;;;;;;5137532;27;20519;-46
2023/09/13 03:48:37;;;;;;;7.30;6.60;;;20.40;99.90;;;;;;5119577;27;20213;-46
2023/09/13 03:51:03;;;;;;;8.20;7.50;;;20.30;99.90;;;;;;5137150;27;20282;-44
2023/09/13 03:53:29;;;;;;;8.37;7.57;;;20.30;99.90;;;;;;5137323;27;20468;-46
2023/09/13 03:55:55;;;;;;;8.23;7.53;;;20.30;99.90;;;;;;5136470;27;20421;-46
2023/09/13 03:58:21;;;;;;;8.33;7.63;;;20.30;99.90;;;;;;5135888;27;20420;-46
2023/09/13 04:00:47;;;;;;;9.30;8.50;;;20.30;99.90;;;;;;5136243;27;20428;-38
2023/09/13 04:03:18;;;;;;;8.20;7.50;;;20.30;99.90;;;;;;5136670;27;20440;-39
2023/09/13 04:05:43;;;;;;;7.57;7.00;;;20.30;99.90;;;;;;5136451;27;20286;-39
2023/09/13 04:08:09;;;;;;;8.57;7.87;;;20.30;99.90;;;;;;5136112;27;20448;-39
2023/09/13 04:10:35;;;;;;;8.47;7.77;;;20.30;99.90;;;;;;5135170;27;20210;-40
2023/09/13 04:13:00;;;;;;;8.30;7.60;;;20.40;99.90;;;;;;5135514;27;20203;-40
2023/09/13 04:15:26;;;;;;;8.20;7.60;;;20.40;99.90;;;;;;5126476;27;20191;-38
2023/09/13 04:17:51;;;;;;;6.90;6.30;;;20.40;99.90;;;;;;5094600;28;20176;-39
2023/09/13 04:20:19;;;;;;;7.10;6.57;;;20.50;99.90;;;;;;5094993;28;20322;-37
2023/09/13 04:22:45;;;;;;;7.60;7.00;;;20.50;99.90;;;;;;5094168;28;20636;-39
2023/09/13 04:25:10;;;;;;;8.43;7.63;;;20.50;99.90;;;;;;5094079;28;20407;-40
2023/09/13 04:27:36;;;;;;;8.47;7.63;;;20.50;99.90;;;;;;5094610;28;20198;-41
2023/09/13 04:30:02;;;;;;;8.23;7.43;;;20.60;99.50;;;;;;5093824;28;20592;-39
2023/09/13 04:32:27;;;;;;;7.80;7.10;;;20.60;92.20;;;;;;5092757;28;20531;-40
2023/09/13 04:34:53;;;;;;;9.20;8.50;;;20.60;37.40;;;;;;5094629;28;20418;-38
2023/09/13 04:37:20;;;;;;;8.70;7.90;;;20.50;72.10;;;;;;5094048;28;20181;-40
2023/09/13 04:39:45;;;;;;;8.43;7.63;;;20.40;99.90;;;;;;5093555;28;20457;-40
2023/09/13 04:42:11;;;;;;;8.43;7.73;;;20.30;99.90;;;;;;5092836;28;20459;-41
2023/09/13 04:44:37;;;;;;;8.60;7.90;;;20.20;99.90;;;;;;5109828;28;20195;-38
2023/09/13 04:47:03;;;;;;;7.63;6.93;;;20.20;99.90;;;;;;5112926;28;20433;-38
2023/09/13 04:49:29;;;;;;;7.03;6.53;;;20.30;99.90;;;;;;5109669;28;20440;-41
2023/09/13 04:51:57;;;;;;;7.07;6.47;;;20.30;99.90;;;;;;5094261;28;20559;-45
2023/09/13 04:54:22;;;;;;;8.00;7.30;;;20.40;99.90;;;;;;5118039;28;20482;-37
2023/09/13 04:56:51;;;;;;;7.80;7.17;;;20.40;99.90;;;;;;5136321;27;20603;-40
2023/09/13 04:59:17;;;;;;;7.90;7.20;;;20.50;99.90;;;;;;5137203;27;20695;-44
2023/09/13 05:01:44;;;;;;;7.73;7.03;;;20.50;99.90;;;;;;5134498;27;20462;-41
2023/09/13 05:04:10;;;;;;;10.00;7.70;;;20.60;99.90;;;;;;5118223;27;20455;-39
2023/09/13 05:06:36;;;;;;;8.10;7.30;;;20.60;99.90;;;;;;5115598;27;20433;-39
2023/09/13 05:09:02;;;;;;;7.70;7.10;;;20.60;99.90;;;;;;5129599;27;20449;-38
2023/09/13 05:11:27;;;;;;;7.90;7.20;;;20.60;99.90;;;;;;5081355;27;20783;-41
2023/09/13 05:14:13;;;;;;;7.47;6.70;;;20.60;99.90;;;;;;5113319;28;20282;-42
2023/09/13 05:16:38;;;;;;;7.83;7.13;;;20.60;99.90;;;;;;5114455;28;20210;-39
2023/09/13 05:19:04;;;;;;;7.70;7.07;;;20.60;99.90;;;;;;5113286;28;20437;-39
2023/09/13 05:21:34;;;;;;;8.60;7.67;;;20.60;99.90;;;;;;5092194;28;20201;-40
2023/09/13 05:24:00;;;;;;;7.87;6.80;;;20.60;99.90;;;;;;5112236;28;20188;-38
2023/09/13 05:26:27;;;;;;;7.73;7.13;;;20.70;99.90;;;;;;5100713;28;20490;-39
2023/09/13 05:28:52;;;;;;;8.10;7.40;;;20.70;99.90;;;;;;5113391;28;20437;-40
2023/09/13 05:31:19;;;;;;;7.00;6.40;;;20.80;28.40;;;;;;5114847;28;20453;-39
2023/09/13 05:33:45;;;;;;;7.70;7.10;;;20.80;62.20;;;;;;5113330;28;20600;-40
2023/09/13 05:36:12;;;;;;;8.07;7.27;;;20.80;60.00;;;;;;5113100;28;20422;-40
2023/09/13 05:38:38;;;;;;;9.80;8.80;;;20.70;91.20;;;;;;5113400;28;20272;-40
2023/09/13 05:41:08;;;;;;;8.10;7.30;;;20.60;33.80;;;;;;5113177;28;20468;-38
2023/09/13 05:43:38;;;;;;;8.43;7.63;;;20.50;99.90;;;;;;5115081;28;20410;-39
2023/09/13 05:46:04;;;;;;;8.10;6.80;;;20.60;99.90;;;;;;5112582;28;20627;-41
2023/09/13 05:48:30;;;;;;;8.60;7.90;;;20.50;99.90;;;;;;5115008;28;20444;-40
2023/09/13 05:50:56;;;;;;;8.70;8.00;;;20.50;99.90;;;;;;5111494;28;20469;-40
2023/09/13 05:53:22;;;;;;;7.90;7.30;;;20.50;99.90;;;;;;5096129;28;21122;-39
2023/09/13 05:55:48;;;;;;;8.93;8.20;;;20.40;99.90;;;;;;5114191;28;20184;-38
2023/09/13 05:58:14;;;;;;;8.53;7.63;;;20.30;99.90;;;;;;5113011;28;20188;-38
2023/09/13 06:00:45;;;;;;;11.43;8.30;;;20.30;99.90;;;;;;5111193;28;20711;-36
2023/09/13 06:03:11;;;;;;;8.60;7.77;;;20.30;99.90;;;;;;5092890;28;20470;-39
2023/09/13 06:05:37;;;;;;;9.03;8.00;;;20.30;99.90;;;;;;5105637;28;20600;-40
2023/09/13 06:08:03;;;;;;;9.60;8.70;;;20.30;99.90;;;;;;5108603;28;20222;-38
2023/09/13 06:10:28;;;;;;;9.23;8.47;;;20.40;99.90;;;;;;5110946;28;20453;-40
2023/09/13 06:12:54;;;;;;;9.27;7.87;;;20.40;99.90;;;;;;5112313;28;20437;-39
2023/09/13 06:15:20;;;;;;;8.80;8.00;;;20.30;99.90;;;;;;5112147;28;20439;-38
2023/09/13 06:17:46;;;;;;;10.07;9.07;;;20.30;99.90;;;;;;5111678;28;20847;-41
2023/09/13 06:20:11;;;;;;;8.90;8.10;;;20.20;99.90;;;;;;5095888;28;20283;-37
2023/09/13 06:22:37;;;;;;;8.23;7.57;;;20.20;99.90;;;;;;5095206;28;20247;-39
2023/09/13 06:25:04;;;;;;;8.40;7.60;;;20.20;1.00;;;;;;5094398;28;20180;-39
2023/09/13 06:27:29;;;;;;;8.23;7.33;;;20.30;1.00;;;;;;5094579;28;20477;-38
2023/09/13 06:29:56;;;;;;;8.20;7.50;;;20.40;99.90;;;;;;5094599;28;20435;-39
2023/09/13 06:32:22;;;;;;;8.93;7.77;;;20.50;99.90;;;;;;5096236;28;20210;-39
2023/09/13 06:34:47;;;;;;;9.30;8.50;;;20.70;99.90;;;;;;5078037;28;20498;-39
2023/09/13 06:37:13;;;;;;;7.63;7.00;;;20.80;24.40;;;;;;5095663;28;20704;-37
2023/09/13 06:39:39;;;;;;;8.60;7.90;;;20.80;60.50;;;;;;5095087;28;20436;-38
2023/09/13 06:42:06;;;;;;;7.07;6.47;;;20.90;46.80;;;;;;5094515;28;20196;-39
2023/09/13 06:44:32;;;;;;;9.00;8.10;;;21.00;25.80;;;;;;5094068;28;20199;-39
2023/09/13 06:46:58;;;;;;;7.70;7.00;;;21.20;1.00;;;;;;5093958;28;20426;-41
2023/09/13 06:49:24;;;;;;;7.93;7.33;;;21.30;1.00;;;;;;5093303;28;20424;-38
2023/09/13 06:51:50;;;;;;;7.87;7.23;;;21.40;1.00;;;;;;5093695;28;20323;-38
2023/09/13 06:54:16;;;;;;;8.90;8.10;;;21.40;99.90;;;;;;5106551;28;20530;-39
2023/09/13 06:56:45;;;;;;;6.47;5.97;;;21.40;99.90;;;;;;5112910;28;20426;-39
2023/09/13 06:59:11;;;;;;;9.10;6.93;;;21.40;99.90;;;;;;5111786;28;20695;-42
2023/09/13 07:01:38;;;;;;;7.83;7.07;;;21.30;1.00;;;;;;5110285;28;20819;-39
2023/09/13 07:04:04;;;;;;;7.43;6.67;;;21.20;1.00;;;;;;5093770;28;20486;-38
2023/09/13 07:06:30;;;;;;;8.20;7.07;;;21.20;1.00;;;;;;5113235;28;20426;-37
2023/09/13 07:08:56;;;;;;;11.43;6.87;;;21.20;1.00;;;;;;5112163;28;20440;-39
2023/09/13 07:11:23;;;;;;;6.93;6.33;;;21.20;1.00;;;;;;5110930;28;20481;-41
2023/09/13 07:13:49;;;;;;;7.20;6.50;;;21.20;6.10;;;;;;5128417;27;20179;-38
2023/09/13 07:16:15;;;;;;;7.10;5.83;;;21.30;39.90;;;;;;5114495;28;20415;-38
2023/09/13 07:18:41;;;;;;;6.60;6.00;;;21.30;1.00;;;;;;5112949;28;20428;-41
2023/09/13 07:21:06;;;;;;;6.07;5.57;;;21.40;1.00;;;;;;5112915;28;20453;-40
2023/09/13 07:23:34;;;;;;;7.17;6.57;;;21.40;1.00;;;;;;5113365;28;20834;-38
2023/09/13 07:25:59;;;;;;;7.00;6.43;;;21.40;1.00;;;;;;5111560;28;20278;-41
2023/09/13 07:28:26;;;;;;;9.10;8.30;;;21.40;99.90;;;;;;5109943;28;20630;-38
2023/09/13 07:30:51;;;;;;;6.93;6.33;;;21.40;1.00;;;;;;5111023;28;20539;-40
2023/09/13 07:33:17;;;;;;;7.80;6.67;;;21.30;1.00;;;;;;5110667;28;20429;-39
2023/09/13 07:35:43;;;;;;;6.90;6.07;;;21.30;1.00;;;;;;5110562;28;20192;-40
2023/09/13 07:38:10;;;;;;;7.70;7.00;;;21.40;1.00;;;;;;5111854;28;20192;-39
2023/09/13 07:40:39;;;;;;;6.60;6.00;;;21.40;1.00;;;;;;5112659;28;20554;-39
2023/09/13 07:43:06;;;;;;;6.70;6.20;;;21.40;1.00;;;;;;5112841;28;20757;-38
2023/09/13 07:45:33;;;;;;;6.30;5.90;;;21.40;1.00;;;;;;5113477;28;20430;-42
2023/09/13 07:48:00;;;;;;;7.47;6.67;;;21.40;1.00;;;;;;5114362;28;20445;-39
2023/09/13 07:50:44;;;;;;;6.70;6.20;;;21.40;99.90;;;;;;5096308;28;20505;-40
2023/09/13 07:53:10;;;;;;;6.97;6.27;;;21.40;99.90;;;;;;5076812;28;20550;-39
2023/09/13 07:55:37;;;;;;;7.23;6.53;;;21.30;99.90;;;;;;5113400;28;20409;-38
2023/09/13 07:58:03;;;;;;;6.60;5.93;;;21.30;99.90;;;;;;5113626;28;20695;-40
2023/09/13 08:00:29;;;;;;;8.93;6.67;;;21.40;1.00;;;;;;5113289;28;20896;-41
2023/09/13 08:02:55;;;;;;;6.67;6.07;;;21.50;99.90;;;;;;5080771;28;20448;-40
2023/09/13 08:05:21;;;;;;;6.27;5.67;;;21.60;99.90;;;;;;5114953;28;20252;-39
2023/09/13 08:07:47;;;;;;;6.20;5.20;;;21.80;40.10;;;;;;5115269;28;20417;-40
2023/09/13 08:10:13;;;;;;;5.70;5.20;;;21.90;1.00;;;;;;5113361;28;20213;-38
2023/09/13 08:12:39;;;;;;;7.63;6.20;;;22.10;99.90;;;;;;5115695;28;20480;-38
2023/09/13 08:15:05;;;;;;;7.80;5.10;;;22.20;1.00;;;;;;5114588;28;20437;-42
2023/09/13 08:17:33;;;;;;;5.97;5.37;;;22.40;1.00;;;;;;5115115;28;20499;-38
2023/09/13 08:19:59;;;;;;;7.10;5.90;;;22.50;99.90;;;;;;5095540;28;20442;-42
2023/09/13 08:22:24;;;;;;;5.93;5.33;;;22.60;5.50;;;;;;5113144;28;20425;-40
2023/09/13 08:24:50;;;;;;;5.50;5.10;;;22.60;1.00;;;;;;5112759;28;21055;-40
2023/09/13 08:27:16;;;;;;;6.03;5.43;;;22.50;1.00;;;;;;5113496;28;20449;-39
2023/09/13 08:29:41;;;;;;;5.70;5.20;;;22.50;1.00;;;;;;5114021;28;20191;-41
2023/09/13 08:32:07;;;;;;;5.93;5.40;;;22.40;1.00;;;;;;5117330;28;20344;-40
2023/09/13 08:34:33;;;;;;;4.87;4.47;;;22.40;1.00;;;;;;5114805;28;20222;-39
2023/09/13 08:36:59;;;;;;;5.13;4.43;;;22.30;1.00;;;;;;5115353;28;20468;-40
2023/09/13 08:39:25;;;;;;;5.57;5.00;;;22.30;15.30;;;;;;5113789;28;20432;-39
2023/09/13 08:41:55;;;;;;;5.77;5.27;;;22.30;19.70;;;;;;5114595;28;20476;-38
2023/09/13 08:44:22;;;;;;;4.63;4.23;;;22.30;15.40;;;;;;5117750;28;20525;-40
2023/09/13 08:46:55;;;;;;;5.77;5.27;;;22.20;58.50;;;;;;5117285;28;20421;-38
2023/09/13 08:49:22;;;;;;;6.30;5.33;;;22.20;99.90;;;;;;5117448;28;20446;-39
2023/09/13 08:51:49;;;;;;;5.70;5.20;;;22.20;99.90;;;;;;5117004;28;20473;-39
2023/09/13 08:54:15;;;;;;;5.40;4.90;;;22.20;99.90;;;;;;5098055;28;20531;-37
2023/09/13 08:56:45;;;;;;;6.07;5.23;;;22.20;1.00;;;;;;5080762;28;20565;-38
2023/09/13 08:59:14;;;;;;;5.00;4.60;;;22.10;1.00;;;;;;5116227;28;20432;-39
2023/09/13 09:01:50;;;;;;;5.60;5.00;;;22.10;1.00;;;;;;5118579;28;20421;-39
2023/09/13 09:04:20;;;;;;;5.23;4.73;;;22.00;1.00;;;;;;5100011;28;20486;-39
2023/09/13 09:06:46;;;;;;;5.93;5.27;;;21.90;99.90;;;;;;5116820;28;20433;-39
2023/09/13 09:09:14;;;;;;;6.07;5.57;;;21.90;99.90;;;;;;5116224;28;20460;-38
2023/09/13 09:11:42;;;;;;;5.97;5.37;;;21.90;99.90;;;;;;5098791;28;20476;-38
2023/09/13 09:14:10;;;;;;;7.10;6.50;;;21.90;1.00;;;;;;5098874;28;20686;-40
2023/09/13 09:16:38;;;;;;;6.43;5.83;;;21.90;1.00;;;;;;5098655;28;20413;-41
2023/09/13 09:19:05;;;;;;;5.70;5.17;;;21.90;11.10;;;;;;5097860;28;20512;-38
2023/09/13 09:21:32;;;;;;;4.80;4.40;;;22.00;99.90;;;;;;5095862;28;20443;-38
2023/09/13 09:23:58;;;;;;;4.53;4.13;;;22.10;99.90;;;;;;5096191;28;20429;-39
2023/09/13 09:26:23;;;;;;;5.30;4.70;;;22.30;1.00;;;;;;5115361;28;20943;-38
2023/09/13 09:28:50;;;;;;;4.87;4.10;;;22.50;1.00;;;;;;5116446;28;20282;-38
2023/09/13 09:31:24;;;;;;;4.10;3.80;;;22.70;99.90;;;;;;5115581;28;20324;-40
2023/09/13 09:34:02;;;;;;;4.90;4.50;;;22.90;1.00;;;;;;5116189;28;20436;-40
2023/09/13 09:36:34;;;;;;;6.30;4.27;;;23.10;99.90;;;;;;5115505;28;20417;-37
2023/09/13 09:39:00;;;;;;;4.70;4.20;;;23.30;99.90;;;;;;5114571;28;20471;-39
2023/09/13 09:41:32;;;;;;;5.00;4.23;;;23.40;1.00;;;;;;5095148;28;20759;-38
2023/09/13 09:43:58;;;;;;;4.63;4.33;;;23.40;1.00;;;;;;5096010;28;20442;-39
2023/09/13 09:46:23;;;;;;;4.70;4.30;;;23.40;1.00;;;;;;5112388;28;20441;-40
2023/09/13 09:48:51;;;;;;;5.17;4.73;;;23.50;99.90;;;;;;5094242;28;20887;-37
2023/09/13 09:51:16;;;;;;;5.03;4.63;;;23.70;99.90;;;;;;5130167;27;20215;-40
2023/09/13 09:53:43;;;;;;;4.60;4.20;;;23.80;1.00;;;;;;5125953;27;20484;-40
2023/09/13 09:56:11;;;;;;;4.53;4.13;;;23.80;1.00;;;;;;5114896;28;20280;-39
2023/09/13 09:58:37;;;;;;;4.20;3.90;;;23.70;1.00;;;;;;5115131;28;20425;-38
2023/09/13 10:01:03;;;;;;;4.70;4.20;;;23.50;1.00;;;;;;5096752;28;20464;-39
2023/09/13 10:03:32;;;;;;;5.10;4.70;;;23.30;1.00;;;;;;5096418;28;20478;-38
2023/09/13 10:06:15;;;;;;;5.07;4.60;;;23.00;99.90;;;;;;5114984;28;20192;-38
2023/09/13 10:08:45;;;;;;;5.20;4.70;;;22.90;99.90;;;;;;5115520;28;20429;-41
2023/09/13 10:11:15;;;;;;;4.10;3.80;;;22.70;1.00;;;;;;5115908;28;20467;-41
2023/09/13 10:13:44;;;;;;;5.23;4.73;;;22.60;99.90;;;;;;5098651;28;20429;-38
2023/09/13 10:16:13;;;;;;;6.23;4.63;;;22.60;99.90;;;;;;5114669;28;20518;-40
2023/09/13 10:18:51;;;;;;;5.07;4.57;;;22.60;99.90;;;;;;5116046;28;20414;-41
2023/09/13 10:21:20;;;;;;;4.63;4.07;;;22.50;1.00;;;;;;5114542;28;20430;-40
2023/09/13 10:23:50;;;;;;;5.20;4.70;;;22.50;1.00;;;;;;5114709;28;20414;-39
2023/09/13 10:26:17;;;;;;;5.90;4.83;;;22.50;35.90;;;;;;5113262;28;20494;-40
2023/09/13 10:28:45;;;;;;;6.23;5.63;;;22.40;99.90;;;;;;5075028;28;20426;-37
2023/09/13 10:31:20;;;;;;;6.10;4.93;;;22.40;99.90;;;;;;5089419;28;20474;-40
2023/09/13 10:33:52;;;;;;;6.33;5.23;;;22.40;99.90;;;;;;5074626;28;20434;-38
2023/09/13 10:36:26;;;;;;;6.50;5.17;;;22.50;99.90;;;;;;5058537;28;20840;-40
2023/09/13 10:38:59;;;;;;;7.73;5.47;;;22.60;99.90;;;;;;5075939;28;20870;-39
2023/09/13 10:41:27;;;;;;;6.17;5.67;;;22.80;1.00;;;;;;5091522;28;20531;-38
2023/09/13 10:43:53;;;;;;;6.17;5.57;;;23.00;1.00;;;;;;5094070;28;20470;-40
2023/09/13 10:46:19;;;;;;;6.23;5.63;;;23.30;99.90;;;;;;5094779;28;20556;-43
2023/09/13 10:48:45;;;;;;;7.20;6.00;;;23.70;99.90;;;;;;5073993;28;20231;-40
2023/09/13 10:51:11;;;;;;;6.07;5.57;;;24.00;1.00;;;;;;5072523;28;20470;-41
2023/09/13 10:53:37;;;;;;;6.93;6.20;;;24.30;99.90;;;;;;5064409;28;20474;-38
2023/09/13 10:56:03;;;;;;;6.13;5.53;;;24.70;94.60;;;;;;5096825;28;20421;-38
2023/09/13 10:58:30;;;;;;;6.00;5.50;;;25.00;1.00;;;;;;5077394;28;20212;-40
2023/09/13 11:00:57;;;;;;;6.57;5.97;;;25.20;1.00;;;;;;5111250;28;20472;-39
2023/09/13 11:03:24;;;;;;;8.27;6.63;;;25.40;1.00;;;;;;5094828;28;20495;-39
2023/09/13 11:05:52;;;;;;;6.60;5.43;;;25.50;99.90;;;;;;5111406;28;20437;-40
2023/09/13 11:08:44;;;;;;;8.43;5.90;;;25.60;99.90;;;;;;5095627;28;20508;-38
2023/09/13 11:11:17;;;;;;;5.83;5.20;;;25.80;99.90;;;;;;5112443;28;20502;-40
2023/09/13 11:13:45;;;;;;;6.10;5.60;;;25.90;99.90;;;;;;5109280;28;20457;-39
2023/09/13 11:16:15;;;;;;;5.43;4.83;;;25.90;99.90;;;;;;5089971;28;20422;-41
2023/09/13 11:18:55;;;;;;;7.50;6.40;;;25.90;99.90;;;;;;5090576;28;20705;-39
2023/09/13 11:21:28;;;;;;;6.03;4.97;;;25.90;99.90;;;;;;5111737;28;20461;-39
2023/09/13 11:23:54;;;;;;;6.00;5.50;;;25.90;99.90;;;;;;5109964;28;20541;-39
2023/09/13 11:26:43;;;;;;;6.60;6.00;;;26.00;99.90;;;;;;5091785;28;20428;-39
2023/09/13 11:29:25;;;;;;;5.30;4.77;;;26.00;99.90;;;;;;5107931;28;20417;-38
2023/09/13 11:32:03;;;;;;;6.73;4.63;;;26.00;99.90;;;;;;5106683;28;20457;-38
2023/09/13 11:34:32;;;;;;;5.50;5.00;;;26.10;99.90;;;;;;5108167;28;20558;-39
2023/09/13 11:37:00;;;;;;;4.70;4.30;;;26.20;99.90;;;;;;5109347;28;20883;-39
2023/09/13 11:39:29;;;;;;;5.77;5.00;;;26.20;87.70;;;;;;5092209;28;20468;-39
2023/09/13 11:41:55;;;;;;;5.77;5.27;;;26.10;78.40;;;;;;5110001;28;20533;-39
2023/09/13 11:44:22;;;;;;;6.03;5.53;;;26.20;67.00;;;;;;5094386;28;20437;-40
2023/09/13 11:46:52;;;;;;;5.70;5.20;;;26.40;32.00;;;;;;5112735;28;20502;-41
2023/09/13 11:49:25;;;;;;;5.80;5.20;;;26.50;38.10;;;;;;5113117;28;20425;-41
2023/09/13 11:51:59;;;;;;;5.80;5.30;;;26.60;33.50;;;;;;5092252;28;20484;-39
2023/09/13 11:54:26;;;;;;;5.50;5.00;;;26.80;20.40;;;;;;5094152;28;20470;-38
2023/09/13 11:56:53;;;;;;;5.37;4.87;;;26.80;15.90;;;;;;5088803;28;20867;-40
2023/09/13 11:59:30;;;;;;;5.13;4.73;;;26.80;1.00;;;;;;5070075;28;20574;-40
2023/09/13 12:01:56;;;;;;;5.80;5.30;;;26.60;1.00;;;;;;5070735;28;20461;-40
2023/09/13 12:04:25;;;;;;;5.80;5.30;;;26.50;1.00;;;;;;5071083;28;20466;-38
2023/09/13 12:06:54;;;;;;;5.43;4.93;;;26.70;1.00;;;;;;5090668;28;20462;-42
2023/09/13 12:09:22;;;;;;;6.13;5.03;;;27.20;1.00;;;;;;5092194;28;20724;-40
2023/09/13 12:11:50;;;;;;;5.47;5.07;;;27.80;1.00;;;;;;5090232;28;20486;-38
2023/09/13 12:14:16;;;;;;;5.80;5.20;;;28.60;1.00;;;;;;5071139;28;20414;-38
2023/09/13 12:16:42;;;;;;;5.50;5.10;;;29.00;1.00;;;;;;5090325;28;20423;-38
2023/09/13 12:19:10;;;;;;;4.73;4.33;;;29.40;1.00;;;;;;5091685;28;20427;-39
2023/09/13 12:21:36;;;;;;;5.00;4.60;;;29.50;1.00;;;;;;5074835;28;20426;-42
2023/09/13 12:24:02;;;;;;;4.90;4.50;;;29.60;1.00;;;;;;5092210;28;20613;-40
2023/09/13 12:26:28;;;;;;;5.47;5.07;;;29.50;1.00;;;;;;5090062;28;20456;-39
2023/09/13 12:28:54;;;;;;;5.03;4.60;;;29.00;1.00;;;;;;5089220;28;20638;-39
2023/09/13 12:31:20;;;;;;;4.90;4.50;;;28.70;1.00;;;;;;5089341;28;20478;-40
2023/09/13 12:33:48;;;;;;;5.20;4.80;;;28.40;1.00;;;;;;5092148;28;20738;-41
2023/09/13 12:36:15;;;;;;;5.50;5.10;;;28.10;1.00;;;;;;5090334;28;20435;-39
2023/09/13 12:38:43;;;;;;;5.47;5.00;;;28.10;1.00;;;;;;5069550;28;20497;-39
2023/09/13 12:41:14;;;;;;;4.73;4.33;;;28.00;1.00;;;;;;5089841;28;20480;-41
2023/09/13 12:43:44;;;;;;;4.90;4.47;;;27.70;1.00;;;;;;5069391;28;20426;-39
2023/09/13 12:46:17;;;;;;;5.27;4.17;;;27.40;1.00;;;;;;5088860;28;20430;-42
2023/09/13 12:48:44;;;;;;;5.90;4.20;;;27.10;1.00;;;;;;5089787;28;20525;-41
2023/09/13 12:51:11;;;;;;;4.70;4.30;;;26.70;1.00;;;;;;5092208;28;20470;-39
2023/09/13 12:53:36;;;;;;;5.37;4.37;;;26.40;1.00;;;;;;5079580;28;20462;-40